Time;durP1;ratioP1;P1;durP2;ratioP2;P2;SDS_P1;SDS_P2;PMS_P1;PMS_P2;Temp;Humidity;BMP_temperature;BMP_pressure;BME280_temperature;BME280_humidity;BME280_pressure;Samples;Min_cycle;Max_cycle;Signal;HPM_P1;HPM_P2
2022/03/27 00:02:08;;;;;;;18.98;13.07;;;;;;;9.64;32.70;95848.38;4959287;28;20247;-66
2022/03/27 00:04:33;;;;;;;18.33;13.25;;;;;;;9.61;32.56;95843.38;4954028;28;20208;-65
2022/03/27 00:06:59;;;;;;;19.20;12.38;;;;;;;9.61;32.75;95845.16;4962865;28;20232;-65
2022/03/27 00:09:24;;;;;;;21.33;12.85;;;;;;;9.64;32.78;95832.59;4963827;28;20290;-65
2022/03/27 00:11:50;;;;;;;21.60;12.98;;;;;;;9.67;32.68;95836.78;4968190;28;20217;-66
2022/03/27 00:14:15;;;;;;;20.05;12.43;;;;;;;9.70;32.42;95836.53;4964649;28;20225;-65
2022/03/27 00:16:41;;;;;;;21.75;13.02;;;;;;;9.74;32.44;95845.00;4959309;28;20209;-65
2022/03/27 00:19:06;;;;;;;19.17;12.45;;;;;;;9.70;32.74;95840.00;4962371;28;20232;-64
2022/03/27 00:21:32;;;;;;;22.42;12.73;;;;;;;9.47;32.92;95836.63;4961524;28;20232;-65
2022/03/27 00:23:58;;;;;;;18.27;12.75;;;;;;;9.53;33.15;95830.03;4957690;28;20235;-65
2022/03/27 00:26:24;;;;;;;16.83;11.75;;;;;;;9.47;32.96;95831.38;4955887;28;20224;-65
2022/03/27 00:28:50;;;;;;;22.45;11.43;;;;;;;9.30;33.72;95833.69;4953854;28;20209;-65
2022/03/27 00:31:16;;;;;;;25.85;13.18;;;;;;;9.27;33.80;95829.53;4964809;28;20252;-65
2022/03/27 00:33:43;;;;;;;21.27;11.85;;;;;;;9.41;34.47;95836.28;4958242;28;20283;-65
2022/03/27 00:36:10;;;;;;;19.42;12.05;;;;;;;9.36;33.98;95822.72;4956736;28;20228;-65
2022/03/27 00:38:37;;;;;;;20.30;11.90;;;;;;;9.10;34.42;95822.19;4960651;28;20318;-65
2022/03/27 00:41:04;;;;;;;19.42;12.10;;;;;;;9.05;34.83;95820.75;4961069;28;20212;-66
2022/03/27 00:43:30;;;;;;;20.05;13.02;;;;;;;8.93;34.92;95813.88;4962109;28;20299;-64
2022/03/27 00:45:56;;;;;;;18.67;12.80;;;;;;;8.96;35.09;95815.44;4963339;28;20311;-65
2022/03/27 00:48:21;;;;;;;18.77;12.65;;;;;;;8.71;35.78;95809.47;4963023;28;20296;-64
2022/03/27 00:50:49;;;;;;;23.15;13.65;;;;;;;8.70;35.69;95804.38;4963548;28;20228;-64
2022/03/27 00:53:15;;;;;;;22.58;11.70;;;;;;;8.59;35.60;95800.78;4954598;28;20266;-64
2022/03/27 00:55:41;;;;;;;21.60;12.90;;;;;;;8.47;36.22;95799.13;4952692;28;20207;-64
2022/03/27 00:58:08;;;;;;;20.63;12.63;;;;;;;8.57;35.92;95799.25;4955457;28;20229;-63
2022/03/27 01:00:45;;;;;;;23.05;12.75;;;;;;;8.45;36.12;95801.06;4953403;28;20601;-64
2022/03/27 01:03:12;;;;;;;17.40;11.52;;;;;;;8.45;36.44;95800.22;4976724;28;20254;-64
2022/03/27 01:05:42;;;;;;;21.58;12.35;;;;;;;8.37;36.45;95798.16;4959607;28;20224;-65
2022/03/27 01:08:09;;;;;;;19.63;11.65;;;;;;;8.21;36.96;95801.13;4955934;28;20318;-64
2022/03/27 01:10:35;;;;;;;20.63;13.15;;;;;;;8.18;36.94;95796.13;4988896;28;20204;-64
2022/03/27 01:13:08;;;;;;;19.52;12.30;;;;;;;8.24;36.89;95793.03;4958696;28;20257;-65
2022/03/27 01:15:39;;;;;;;25.85;12.60;;;;;;;8.22;37.10;95792.31;4988604;28;20232;-67
2022/03/27 01:18:07;;;;;;;21.63;11.77;;;;;;;8.27;36.72;95798.03;4955925;28;20268;-66
2022/03/27 01:20:34;;;;;;;18.88;11.63;;;;;;;8.22;36.82;95786.25;4956297;28;20227;-66
2022/03/27 01:23:01;;;;;;;18.63;11.82;;;;;;;8.18;36.80;95796.97;4963149;28;20278;-66
2022/03/27 01:25:26;;;;;;;21.38;12.07;;;;;;;8.06;36.84;95795.28;4963368;28;20208;-67
2022/03/27 01:27:52;;;;;;;17.33;11.77;;;;;;;8.01;36.99;95792.16;4960975;28;20287;-66
2022/03/27 01:30:17;;;;;;;18.58;12.35;;;;;;;7.98;36.58;95788.97;4959564;28;20256;-67
2022/03/27 01:32:43;;;;;;;17.15;12.38;;;;;;;7.97;36.79;95792.53;4960514;28;20224;-66
2022/03/27 01:35:10;;;;;;;22.42;12.43;;;;;;;7.83;37.32;95791.78;4959944;28;20224;-66
2022/03/27 01:37:36;;;;;;;27.52;12.52;;;;;;;7.79;36.83;95790.34;4964705;28;20204;-66
2022/03/27 01:40:02;;;;;;;24.98;13.70;;;;;;;7.81;36.88;95792.88;4966291;28;20250;-66
2022/03/27 01:42:27;;;;;;;23.75;12.93;;;;;;;7.70;37.34;95786.66;4965517;28;20232;-67
2022/03/27 01:44:53;;;;;;;19.98;14.02;;;;;;;7.68;36.88;95801.63;4953836;28;20227;-68
2022/03/27 01:47:19;;;;;;;20.65;13.32;;;;;;;7.64;37.22;95797.56;4960045;28;20274;-67
2022/03/27 01:49:45;;;;;;;16.65;12.02;;;;;;;7.61;36.96;95789.94;4962539;28;20196;-67
2022/03/27 01:52:11;;;;;;;22.63;13.57;;;;;;;7.62;36.87;95793.41;4952539;28;20228;-67
2022/03/27 01:54:36;;;;;;;20.63;12.65;;;;;;;7.61;36.98;95799.56;4959440;28;20286;-67
2022/03/27 01:57:02;;;;;;;17.95;11.10;;;;;;;7.59;36.89;95797.09;4954738;28;20327;-68
2022/03/27 01:59:28;;;;;;;20.70;12.05;;;;;;;7.76;36.67;95801.06;4959314;28;20220;-68
2022/03/27 02:01:53;;;;;;;20.75;12.88;;;;;;;7.83;36.37;95785.69;4961249;28;20833;-66
2022/03/27 02:04:19;;;;;;;19.17;12.50;;;;;;;7.90;36.17;95789.53;4955506;28;20224;-67
2022/03/27 02:06:45;;;;;;;18.05;11.48;;;;;;;7.83;36.60;95797.03;4952219;28;20247;-67
2022/03/27 02:09:12;;;;;;;18.42;11.27;;;;;;;7.68;36.65;95803.41;4943683;28;20247;-67
2022/03/27 02:11:42;;;;;;;18.30;10.75;;;;;;;7.70;36.38;95796.28;4957583;28;20471;-66
2022/03/27 02:14:08;;;;;;;18.92;11.98;;;;;;;7.44;36.84;95796.44;4965745;28;20295;-66
2022/03/27 02:16:34;;;;;;;19.00;12.20;;;;;;;7.37;37.19;95792.59;4972928;28;20203;-67
2022/03/27 02:18:59;;;;;;;16.67;11.40;;;;;;;7.32;37.55;95805.16;4957365;28;20224;-67
2022/03/27 02:21:24;;;;;;;18.70;11.50;;;;;;;7.42;37.32;95793.09;4958004;28;20236;-66
2022/03/27 02:23:50;;;;;;;22.38;10.93;;;;;;;7.40;37.45;95797.59;4964295;28;20225;-66
2022/03/27 02:26:15;;;;;;;15.40;10.85;;;;;;;7.36;37.93;95801.41;4962571;28;20398;-66
2022/03/27 02:28:41;;;;;;;21.20;11.27;;;;;;;7.51;37.29;95802.88;4994750;28;20220;-66
2022/03/27 02:31:08;;;;;;;19.90;10.82;;;;;;;7.53;37.46;95799.31;4993691;28;20224;-66
2022/03/27 02:33:34;;;;;;;20.58;11.75;;;;;;;7.32;38.12;95794.72;4962245;28;20232;-65
2022/03/27 02:35:59;;;;;;;19.48;11.32;;;;;;;7.29;38.21;95802.78;4965958;28;20224;-66
2022/03/27 02:38:25;;;;;;;22.37;11.70;;;;;;;7.33;38.16;95809.47;4962809;28;20239;-66
2022/03/27 02:40:50;;;;;;;19.35;10.63;;;;;;;7.21;38.42;95812.97;4988466;28;20867;-66
2022/03/27 02:43:16;;;;;;;18.50;10.03;;;;;;;7.06;38.53;95812.31;4962077;28;20212;-66
2022/03/27 02:45:42;;;;;;;20.17;11.40;;;;;;;7.19;37.99;95822.72;4963883;28;20232;-66
2022/03/27 02:48:08;;;;;;;19.60;10.93;;;;;;;7.03;38.66;95820.34;4965819;28;20491;-66
2022/03/27 02:50:36;;;;;;;22.08;11.43;;;;;;;7.14;38.88;95822.22;4966296;28;20216;-66
2022/03/27 02:53:02;;;;;;;20.65;11.07;;;;;;;7.13;38.86;95821.38;4954567;28;20219;-66
2022/03/27 02:55:28;;;;;;;20.47;9.90;;;;;;;6.85;39.50;95828.59;4964441;28;20220;-66
2022/03/27 02:57:54;;;;;;;19.40;10.60;;;;;;;6.95;39.26;95823.56;4963984;28;20239;-66
2022/03/27 03:00:20;;;;;;;22.52;10.55;;;;;;;6.99;39.65;95825.00;4957782;28;20228;-66
2022/03/27 03:02:46;;;;;;;17.90;10.38;;;;;;;6.88;39.99;95830.16;4956215;28;20224;-66
2022/03/27 03:05:12;;;;;;;16.15;9.63;;;;;;;7.04;39.46;95825.50;4957161;28;20274;-65
2022/03/27 03:07:41;;;;;;;14.88;9.35;;;;;;;6.82;39.98;95833.22;4958535;28;20235;-64
2022/03/27 03:10:08;;;;;;;18.52;10.20;;;;;;;6.88;39.98;95831.94;4964347;28;20236;-64
2022/03/27 03:12:33;;;;;;;20.75;9.75;;;;;;;7.09;39.58;95829.56;4957370;28;20228;-64
2022/03/27 03:14:59;;;;;;;17.50;10.13;;;;;;;7.12;39.82;95829.34;4978783;28;20240;-64
2022/03/27 03:17:25;;;;;;;16.00;9.50;;;;;;;7.09;40.29;95826.97;4957680;28;20228;-64
2022/03/27 03:19:52;;;;;;;18.10;10.40;;;;;;;7.18;39.65;95834.13;4956575;28;20212;-65
2022/03/27 03:22:18;;;;;;;18.65;9.73;;;;;;;6.98;40.48;95825.94;4959414;28;20323;-65
2022/03/27 03:24:44;;;;;;;18.52;10.50;;;;;;;6.90;40.09;95827.44;4966841;28;20252;-65
2022/03/27 03:27:09;;;;;;;15.83;9.23;;;;;;;6.80;40.66;95828.06;4957161;28;20239;-64
2022/03/27 03:29:35;;;;;;;11.88;8.45;;;;;;;6.88;40.64;95832.78;4962050;28;20237;-65
2022/03/27 03:32:00;;;;;;;12.33;8.70;;;;;;;6.91;40.50;95822.09;4963820;28;20226;-65
2022/03/27 03:34:26;;;;;;;14.40;8.47;;;;;;;6.88;40.44;95824.94;4964663;28;20213;-65
2022/03/27 03:36:51;;;;;;;12.40;8.23;;;;;;;6.85;40.80;95823.38;4967762;28;20239;-65
2022/03/27 03:39:17;;;;;;;13.23;8.10;;;;;;;6.89;40.38;95817.91;4962057;28;20233;-65
2022/03/27 03:41:42;;;;;;;12.02;8.73;;;;;;;6.75;40.72;95822.34;4968308;28;20232;-64
2022/03/27 03:44:08;;;;;;;15.10;8.43;;;;;;;6.77;40.61;95830.91;4957906;28;20209;-66
2022/03/27 03:46:34;;;;;;;11.90;8.27;;;;;;;6.86;40.43;95834.66;4989041;28;20212;-66
2022/03/27 03:48:59;;;;;;;12.43;9.03;;;;;;;6.75;41.00;95831.97;4957700;28;20227;-66
2022/03/27 03:51:25;;;;;;;15.63;9.33;;;;;;;6.66;41.25;95835.25;4956380;28;20255;-66
2022/03/27 03:53:50;;;;;;;15.10;9.47;;;;;;;6.68;41.13;95830.72;4963148;28;20232;-65
2022/03/27 03:56:16;;;;;;;14.47;9.97;;;;;;;6.53;41.61;95836.09;4990643;28;20239;-66
2022/03/27 03:58:41;;;;;;;16.20;9.03;;;;;;;6.50;41.57;95831.06;4954353;28;20300;-65
2022/03/27 04:01:07;;;;;;;15.03;9.67;;;;;;;6.49;42.27;95828.56;4960204;28;20235;-66
2022/03/27 04:03:32;;;;;;;15.67;9.37;;;;;;;6.57;41.91;95840.13;4961912;28;20275;-65
2022/03/27 04:05:59;;;;;;;14.77;8.70;;;;;;;6.45;42.16;95841.00;4950523;28;20249;-63
2022/03/27 04:08:24;;;;;;;17.37;9.53;;;;;;;6.34;42.35;95844.38;4947177;28;20224;-63
2022/03/27 04:10:49;;;;;;;17.53;9.40;;;;;;;6.41;42.23;95844.75;4954193;28;20257;-63
2022/03/27 04:13:15;;;;;;;13.10;8.80;;;;;;;6.38;42.14;95847.59;4964457;28;20229;-64
2022/03/27 04:15:41;;;;;;;17.55;10.05;;;;;;;6.29;42.82;95853.47;4955903;28;20228;-63
2022/03/27 04:18:06;;;;;;;18.60;10.68;;;;;;;6.28;42.62;95859.59;4965218;28;20311;-64
2022/03/27 04:20:34;;;;;;;17.85;10.95;;;;;;;6.17;42.55;95860.34;4959917;28;20746;-63
2022/03/27 04:23:00;;;;;;;18.90;11.20;;;;;;;6.18;42.63;95860.25;4957056;28;20239;-63
2022/03/27 04:25:26;;;;;;;18.23;10.77;;;;;;;6.03;43.41;95863.88;4961755;28;20209;-64
2022/03/27 04:27:52;;;;;;;18.83;10.70;;;;;;;6.01;43.38;95867.53;4955345;28;20227;-66
2022/03/27 04:30:17;;;;;;;18.60;10.90;;;;;;;6.02;43.33;95864.84;4993360;28;20279;-60
2022/03/27 04:32:43;;;;;;;17.40;10.97;;;;;;;6.01;43.39;95873.59;4966873;28;20232;-60
2022/03/27 04:35:10;;;;;;;20.03;10.90;;;;;;;6.08;43.28;95864.41;4963217;28;20548;-60
2022/03/27 04:37:40;;;;;;;22.43;11.43;;;;;;;5.92;43.56;95877.63;4956759;28;20229;-60
2022/03/27 04:40:06;;;;;;;23.90;11.57;;;;;;;5.99;43.60;95870.25;4955054;28;20232;-60
2022/03/27 04:42:31;;;;;;;21.67;11.93;;;;;;;6.02;43.53;95888.34;4956305;28;20735;-59
2022/03/27 04:44:57;;;;;;;18.03;11.83;;;;;;;6.16;43.45;95885.63;4954821;28;20363;-59
2022/03/27 04:47:22;;;;;;;20.67;11.13;;;;;;;6.19;43.43;95893.25;4962439;28;20228;-60
2022/03/27 04:49:48;;;;;;;21.40;11.83;;;;;;;6.08;43.82;95890.53;4969660;28;20207;-59
2022/03/27 04:52:14;;;;;;;21.30;12.10;;;;;;;5.98;43.75;95894.69;4992750;28;20279;-60
2022/03/27 04:54:40;;;;;;;23.53;11.53;;;;;;;5.86;44.11;95896.31;4963521;28;20304;-60
2022/03/27 04:57:06;;;;;;;21.73;11.23;;;;;;;6.00;43.55;95889.38;4963942;28;20241;-59
2022/03/27 04:59:32;;;;;;;21.87;11.67;;;;;;;6.05;43.72;95903.78;4963055;28;20227;-60
2022/03/27 05:01:58;;;;;;;20.43;11.60;;;;;;;5.96;44.04;95902.63;4957790;28;20299;-59
2022/03/27 05:04:24;;;;;;;18.77;11.40;;;;;;;6.13;43.67;95909.34;4962263;28;20211;-58
2022/03/27 05:06:49;;;;;;;22.97;11.40;;;;;;;6.28;43.40;95917.06;4965923;28;20233;-59
2022/03/27 05:09:14;;;;;;;19.63;11.30;;;;;;;6.25;43.28;95909.44;4965514;28;20224;-58
2022/03/27 05:11:40;;;;;;;20.80;11.60;;;;;;;6.22;43.54;95914.88;4955517;28;20232;-59
2022/03/27 05:14:06;;;;;;;23.30;11.70;;;;;;;6.14;43.55;95913.59;4956680;28;20311;-59
2022/03/27 05:16:31;;;;;;;24.27;12.73;;;;;;;6.21;43.78;95915.81;4962671;28;20263;-59
2022/03/27 05:18:56;;;;;;;22.37;11.50;;;;;;;6.27;43.62;95918.84;4953217;28;20231;-58
2022/03/27 05:21:23;;;;;;;24.33;12.47;;;;;;;6.32;43.16;95914.16;4956377;28;20224;-59
2022/03/27 05:23:48;;;;;;;30.97;12.27;;;;;;;6.44;43.32;95907.25;4958543;28;20249;-59
2022/03/27 05:26:14;;;;;;;18.33;11.57;;;;;;;6.61;42.48;95906.13;4964359;28;20242;-59
2022/03/27 05:28:40;;;;;;;21.10;11.77;;;;;;;6.80;41.90;95918.75;4959571;28;20606;-59
2022/03/27 05:31:08;;;;;;;19.17;10.47;;;;;;;6.75;41.06;95916.44;4955974;28;20229;-60
2022/03/27 05:33:38;;;;;;;15.53;10.67;;;;;;;6.89;41.34;95917.25;4959980;28;20231;-60
2022/03/27 05:36:05;;;;;;;19.40;10.63;;;;;;;6.88;40.67;95920.81;4952932;28;20316;-60
2022/03/27 05:38:30;;;;;;;18.73;10.37;;;;;;;7.03;40.63;95910.13;4969534;28;20342;-60
2022/03/27 05:40:55;;;;;;;18.03;10.37;;;;;;;7.02;40.49;95915.44;4966606;28;20212;-59
2022/03/27 05:43:21;;;;;;;17.53;10.13;;;;;;;7.15;40.46;95918.03;4961570;28;20232;-60
2022/03/27 05:45:47;;;;;;;15.33;9.60;;;;;;;7.22;39.69;95919.28;4957451;28;20225;-60
2022/03/27 05:48:13;;;;;;;15.10;9.97;;;;;;;7.33;39.22;95924.59;4953695;28;20731;-59
2022/03/27 05:50:39;;;;;;;13.20;9.43;;;;;;;7.46;38.70;95928.00;4956236;28;20229;-59
2022/03/27 05:53:05;;;;;;;15.27;9.13;;;;;;;7.55;38.75;95925.66;4952210;28;20288;-59
2022/03/27 05:55:30;;;;;;;12.70;9.37;;;;;;;7.68;38.67;95931.69;4954444;28;20220;-60
2022/03/27 05:57:56;;;;;;;14.43;10.00;;;;;;;7.77;38.41;95931.00;4975456;28;20333;-60
2022/03/27 06:00:21;;;;;;;16.43;9.33;;;;;;;7.86;37.69;95929.50;4967919;28;20232;-59
2022/03/27 06:02:49;;;;;;;14.93;9.27;;;;;;;7.93;38.12;95928.91;4964969;28;20239;-60
2022/03/27 06:05:17;;;;;;;11.40;8.98;;;;;;;8.01;37.97;95933.59;4955277;28;20219;-59
2022/03/27 06:07:44;;;;;;;16.73;10.02;;;;;;;8.09;37.64;95922.56;4957990;28;20351;-59
2022/03/27 06:10:11;;;;;;;18.23;10.60;;;;;;;8.23;37.80;95924.97;4958919;28;20220;-59
2022/03/27 06:12:36;;;;;;;15.88;10.50;;;;;;;8.16;37.96;95926.41;4951643;28;20323;-60
2022/03/27 06:15:02;;;;;;;15.90;10.27;;;;;;;8.27;38.30;95938.69;4986924;28;20235;-60
2022/03/27 06:17:28;;;;;;;16.23;10.10;;;;;;;8.27;37.60;95934.28;4964003;28;20216;-59
2022/03/27 06:19:53;;;;;;;19.77;11.30;;;;;;;8.34;37.52;95938.13;4975962;28;20239;-59
2022/03/27 06:22:18;;;;;;;19.27;12.13;;;;;;;8.43;37.23;95936.63;4958883;28;20243;-59
2022/03/27 06:24:44;;;;;;;16.27;11.25;;;;;;;8.42;37.25;95931.47;4956257;28;20229;-59
2022/03/27 06:27:09;;;;;;;19.42;12.82;;;;;;;8.41;37.57;95933.25;4958023;28;20228;-59
2022/03/27 06:29:35;;;;;;;21.33;12.68;;;;;;;8.58;37.19;95929.34;4960379;28;20252;-60
2022/03/27 06:32:00;;;;;;;18.80;12.98;;;;;;;8.64;37.12;95922.84;4956046;28;20226;-59
2022/03/27 06:34:26;;;;;;;25.13;13.18;;;;;;;8.71;36.50;95927.47;4966983;28;20240;-60
2022/03/27 06:36:52;;;;;;;22.45;14.07;;;;;;;8.52;37.06;95932.44;4960605;28;20291;-61
2022/03/27 06:39:17;;;;;;;18.23;13.30;;;;;;;8.65;36.58;95927.13;4988626;28;20239;-61
2022/03/27 06:41:43;;;;;;;21.00;13.35;;;;;;;8.79;36.79;95930.34;4958719;28;20298;-58
2022/03/27 06:44:09;;;;;;;23.05;14.05;;;;;;;8.69;36.49;95929.41;4954404;28;20204;-58
2022/03/27 06:46:35;;;;;;;28.13;14.65;;;;;;;8.76;36.24;95919.25;4953173;28;20268;-59
2022/03/27 06:49:00;;;;;;;22.33;13.77;;;;;;;8.90;36.23;95929.53;4960432;28;20224;-59
2022/03/27 06:51:26;;;;;;;21.63;13.75;;;;;;;8.91;36.23;95933.81;4960613;28;20323;-61
2022/03/27 06:53:51;;;;;;;23.55;14.20;;;;;;;9.00;36.24;95935.69;4961084;28;20228;-61
2022/03/27 06:56:17;;;;;;;20.38;14.13;;;;;;;9.19;36.23;95942.97;4964957;28;20247;-60
2022/03/27 06:58:43;;;;;;;25.23;15.25;;;;;;;9.29;35.97;95943.09;4985295;28;20227;-60
2022/03/27 07:03:53;;;;;;;20.98;14.27;;;;;;;9.48;35.84;95942.47;4959237;28;20262;-60
2022/03/27 07:06:19;;;;;;;22.00;14.50;;;;;;;9.60;35.67;95949.38;4958449;28;20230;-60
2022/03/27 07:08:45;;;;;;;21.13;14.25;;;;;;;9.62;35.11;95944.84;4963132;28;20232;-60
2022/03/27 07:11:10;;;;;;;21.20;15.23;;;;;;;9.70;35.05;95952.94;4964296;28;20212;-60
2022/03/27 07:13:36;;;;;;;25.88;15.20;;;;;;;9.83;35.17;95944.88;4958004;28;20216;-61
2022/03/27 07:16:02;;;;;;;19.85;15.38;;;;;;;9.84;34.67;95943.94;4962774;28;20248;-61
2022/03/27 07:18:28;;;;;;;23.65;14.50;;;;;;;9.88;35.06;95947.13;4956079;28;20228;-60
2022/03/27 07:20:54;;;;;;;19.83;15.73;;;;;;;9.92;35.01;95945.94;4963186;28;20220;-62
2022/03/27 07:23:20;;;;;;;25.27;15.50;;;;;;;10.16;34.23;95946.56;4957429;28;20266;-61
2022/03/27 07:25:49;;;;;;;23.63;15.40;;;;;;;10.15;34.36;95938.78;4966190;28;20857;-63
2022/03/27 07:28:15;;;;;;;22.20;15.77;;;;;;;10.27;34.00;95944.84;4969614;28;20243;-63
2022/03/27 07:30:42;;;;;;;21.40;14.80;;;;;;;10.37;34.33;95932.59;4966452;28;20272;-65
2022/03/27 07:33:08;;;;;;;20.40;14.75;;;;;;;10.47;33.71;95940.56;4963988;28;20323;-66
2022/03/27 07:35:34;;;;;;;20.20;14.90;;;;;;;10.47;33.76;95935.31;4960784;28;20233;-66
2022/03/27 07:38:01;;;;;;;22.00;14.93;;;;;;;10.69;33.36;95929.06;4964361;28;20212;-65
2022/03/27 07:40:27;;;;;;;21.98;14.95;;;;;;;10.72;33.16;95931.44;4964242;28;20197;-65
2022/03/27 07:42:54;;;;;;;22.60;14.13;;;;;;;10.81;32.65;95928.03;4968407;28;20224;-65
2022/03/27 07:45:22;;;;;;;22.15;15.00;;;;;;;10.97;32.66;95927.56;4966729;28;20248;-65
2022/03/27 07:47:49;;;;;;;22.55;13.85;;;;;;;11.07;33.05;95923.19;4960494;28;20252;-65
2022/03/27 07:50:16;;;;;;;21.42;14.85;;;;;;;11.15;32.59;95920.72;4955062;28;20320;-65
2022/03/27 07:52:42;;;;;;;22.92;14.07;;;;;;;11.25;32.68;95920.72;4962682;28;20238;-66
2022/03/27 07:55:08;;;;;;;22.65;12.98;;;;;;;11.38;31.92;95921.31;4953629;28;20259;-65
2022/03/27 07:57:34;;;;;;;22.15;13.93;;;;;;;11.36;32.29;95917.16;4956863;28;20239;-65
2022/03/27 08:00:00;;;;;;;21.65;13.75;;;;;;;11.35;32.70;95920.78;4962674;28;20292;-64
2022/03/27 08:02:25;;;;;;;17.33;12.38;;;;;;;11.50;32.15;95914.16;4962519;28;20228;-64
2022/03/27 08:04:51;;;;;;;18.63;13.80;;;;;;;11.62;32.02;95912.22;4959579;28;20208;-66
2022/03/27 08:07:16;;;;;;;17.80;12.57;;;;;;;11.75;32.41;95910.16;4956840;28;20240;-62
2022/03/27 08:09:42;;;;;;;19.40;13.25;;;;;;;12.07;30.77;95906.47;4955340;28;20298;-62
2022/03/27 08:12:09;;;;;;;14.77;11.35;;;;;;;12.20;30.72;95912.31;4961239;28;20279;-62
2022/03/27 08:14:39;;;;;;;16.33;11.25;;;;;;;12.47;28.50;95913.38;4958706;28;20235;-60
2022/03/27 08:17:06;;;;;;;17.38;12.00;;;;;;;12.58;28.97;95900.03;4957130;28;20208;-63
2022/03/27 08:19:32;;;;;;;19.70;11.07;;;;;;;12.58;29.20;95905.31;4960062;28;20937;-60
2022/03/27 08:21:57;;;;;;;19.92;12.32;;;;;;;12.75;28.93;95901.09;4964329;28;20327;-60
2022/03/27 08:24:23;;;;;;;16.73;11.73;;;;;;;12.98;28.92;95896.28;4962762;28;20963;-59
2022/03/27 08:27:02;;;;;;;17.38;11.98;;;;;;;13.15;28.11;95892.91;4964147;28;20716;-62
2022/03/27 08:29:39;;;;;;;16.35;11.25;;;;;;;13.40;26.36;95890.56;4961434;28;20223;-60
2022/03/27 08:32:07;;;;;;;16.52;11.05;;;;;;;13.42;26.10;95889.44;4966695;28;20204;-60
2022/03/27 08:34:36;;;;;;;17.52;10.68;;;;;;;13.61;25.29;95896.44;4993595;28;20367;-60
2022/03/27 08:37:04;;;;;;;19.13;10.95;;;;;;;13.64;24.79;95904.06;4965550;28;20232;-61
2022/03/27 08:39:30;;;;;;;16.75;10.88;;;;;;;13.63;24.90;95896.25;4965534;28;20224;-61
2022/03/27 08:41:56;;;;;;;22.25;11.25;;;;;;;13.62;25.06;95886.69;4964275;28;20259;-61
2022/03/27 08:44:28;;;;;;;15.43;10.27;;;;;;;13.68;25.01;95881.66;4961915;28;20237;-62
2022/03/27 08:46:56;;;;;;;14.07;10.75;;;;;;;13.81;25.09;95886.53;4971300;28;20216;-62
2022/03/27 08:49:40;;;;;;;13.18;10.00;;;;;;;13.83;25.14;95875.84;4970534;28;20355;-62
2022/03/27 08:52:19;;;;;;;14.13;10.80;;;;;;;13.95;25.08;95871.97;4965860;28;20318;-62
2022/03/27 08:55:06;;;;;;;14.00;10.02;;;;;;;14.10;24.86;95875.75;4962375;28;20224;-62
2022/03/27 08:57:52;;;;;;;13.52;10.27;;;;;;;14.15;25.30;95871.81;4972036;28;20220;-64
2022/03/27 09:00:28;;;;;;;24.75;10.93;;;;;;;14.30;24.49;95880.84;4962686;28;20243;-62
2022/03/27 09:02:54;;;;;;;18.45;10.77;;;;;;;14.30;24.54;95872.91;4977737;28;20219;-62
2022/03/27 09:05:22;;;;;;;17.33;11.73;;;;;;;14.38;24.16;95859.78;4956345;28;20271;-62
2022/03/27 09:07:48;;;;;;;15.50;11.80;;;;;;;14.50;23.56;95862.97;4958164;28;20267;-62
2022/03/27 09:10:14;;;;;;;18.73;12.02;;;;;;;14.55;23.76;95861.56;4966665;28;20232;-62
2022/03/27 09:12:41;;;;;;;15.32;11.63;;;;;;;14.63;23.46;95857.31;4994197;28;20225;-62
2022/03/27 09:15:08;;;;;;;22.15;12.30;;;;;;;14.76;23.25;95857.72;4960235;28;20235;-62
2022/03/27 09:18:01;;;;;;;15.13;11.18;;;;;;;14.91;23.39;95866.72;4958935;28;20286;-62
2022/03/27 09:20:46;;;;;;;17.80;12.05;;;;;;;15.01;22.83;95871.91;4954817;28;20739;-62
2022/03/27 09:23:25;;;;;;;19.77;12.88;;;;;;;14.99;22.87;95872.09;4954424;28;20739;-62
2022/03/27 09:25:59;;;;;;;20.15;13.43;;;;;;;15.07;22.91;95833.34;4958411;28;20200;-62
2022/03/27 09:28:29;;;;;;;17.75;11.73;;;;;;;15.14;22.34;95860.88;4965702;28;20251;-62
2022/03/27 09:30:57;;;;;;;20.08;13.10;;;;;;;15.25;22.07;95851.81;4955535;28;20232;-63
2022/03/27 09:33:50;;;;;;;16.52;12.20;;;;;;;15.44;21.82;95851.53;4957102;28;20233;-62
2022/03/27 09:36:27;;;;;;;17.85;12.70;;;;;;;15.52;21.61;95851.56;4958648;28;20237;-62
2022/03/27 09:39:17;;;;;;;17.23;11.75;;;;;;;15.62;21.35;95848.78;4960403;28;21318;-63
2022/03/27 09:41:59;;;;;;;19.60;12.85;;;;;;;15.70;20.76;95848.81;4957186;28;20258;-66
2022/03/27 09:44:32;;;;;;;16.30;11.65;;;;;;;15.68;21.03;95848.13;4993588;28;20279;-66
2022/03/27 09:47:04;;;;;;;17.50;11.50;;;;;;;15.92;21.06;95854.50;4989312;28;20212;-62
2022/03/27 09:49:30;;;;;;;17.95;11.70;;;;;;;15.97;21.16;95838.91;4954935;28;20227;-63
2022/03/27 09:52:12;;;;;;;16.70;12.02;;;;;;;16.09;20.23;95841.09;4964958;28;20263;-65
2022/03/27 09:54:57;;;;;;;15.63;11.40;;;;;;;16.12;20.62;95845.22;4956900;28;20236;-65
2022/03/27 09:57:37;;;;;;;15.30;11.32;;;;;;;16.20;20.08;95826.66;4956939;28;20255;-61
2022/03/27 10:00:12;;;;;;;17.23;11.52;;;;;;;16.39;20.18;95835.28;4957187;28;20231;-65
2022/03/27 10:02:41;;;;;;;15.48;11.40;;;;;;;16.44;19.83;95836.41;4990565;28;20247;-66
2022/03/27 10:05:11;;;;;;;20.15;10.85;;;;;;;16.49;19.69;95831.44;4965225;28;20249;-64
2022/03/27 10:07:44;;;;;;;17.45;11.18;;;;;;;16.57;20.02;95835.06;4959158;28;20207;-66
2022/03/27 10:10:15;;;;;;;16.17;10.70;;;;;;;16.81;19.29;95824.41;4954241;28;20244;-60
2022/03/27 10:12:43;;;;;;;13.68;10.80;;;;;;;16.93;18.78;95803.63;4952595;28;20262;-61
2022/03/27 10:15:18;;;;;;;17.00;10.65;;;;;;;16.96;18.46;95805.94;4957331;28;20228;-67
2022/03/27 10:17:50;;;;;;;15.93;9.95;;;;;;;17.07;18.28;95813.53;4962804;28;20281;-67
2022/03/27 10:20:19;;;;;;;16.48;10.00;;;;;;;17.14;17.97;95808.38;4964333;28;20247;-61
2022/03/27 10:22:48;;;;;;;16.52;10.13;;;;;;;17.33;17.72;95804.44;4958842;28;20243;-65
2022/03/27 10:25:17;;;;;;;14.68;9.55;;;;;;;17.30;17.59;95812.78;4987107;28;20223;-60
2022/03/27 10:27:47;;;;;;;16.98;9.90;;;;;;;17.39;17.33;95806.41;4955930;28;20220;-65
2022/03/27 10:30:16;;;;;;;13.05;9.32;;;;;;;17.46;17.31;95790.59;4953727;28;20247;-63
2022/03/27 10:32:43;;;;;;;11.43;8.32;;;;;;;17.48;17.54;95794.72;4957431;28;20228;-63
2022/03/27 10:35:26;;;;;;;10.25;8.70;;;;;;;17.58;17.35;95790.00;4957928;28;20227;-63
2022/03/27 10:37:58;;;;;;;11.57;8.00;;;;;;;17.66;18.43;95793.59;4966567;28;20327;-67
2022/03/27 10:41:06;;;;;;;11.20;9.15;;;;;;;17.73;17.45;95799.88;4968072;28;20310;-61
2022/03/27 10:43:42;;;;;;;13.77;8.63;;;;;;;17.89;16.91;95793.66;4964401;28;20229;-65
2022/03/27 10:46:11;;;;;;;11.10;8.50;;;;;;;17.96;16.48;95783.94;4943713;28;20779;-64
2022/03/27 10:48:38;;;;;;;12.40;8.98;;;;;;;17.94;16.12;95789.44;4956558;28;20256;-66
2022/03/27 10:51:03;;;;;;;11.15;8.35;;;;;;;17.92;16.42;95786.13;4947246;28;20224;-64
2022/03/27 10:53:29;;;;;;;12.70;8.55;;;;;;;18.06;17.18;95777.34;4949231;28;20271;-65
2022/03/27 10:55:57;;;;;;;12.23;8.60;;;;;;;18.27;16.45;95783.84;4965291;28;20216;-61
2022/03/27 10:58:40;;;;;;;10.63;8.15;;;;;;;18.45;16.13;95778.19;4963256;28;20235;-68
2022/03/27 11:01:29;;;;;;;13.63;7.93;;;;;;;18.54;16.00;95768.28;4944914;28;20232;-64
2022/03/27 11:04:14;;;;;;;12.73;9.60;;;;;;;18.84;16.36;95766.47;4959242;28;20341;-62
2022/03/27 11:06:43;;;;;;;10.30;9.13;;;;;;;18.93;16.51;95776.84;4945730;28;20262;-62
2022/03/27 11:09:13;;;;;;;11.27;9.40;;;;;;;19.00;15.89;95770.75;4963552;28;20308;-66
2022/03/27 11:11:39;;;;;;;11.93;8.48;;;;;;;18.95;15.84;95755.31;4965687;28;20715;-63
2022/03/27 11:14:07;;;;;;;11.98;8.77;;;;;;;18.98;15.50;95767.44;4965492;28;20219;-63
2022/03/27 11:16:37;;;;;;;12.82;9.27;;;;;;;19.12;15.73;95771.94;4947994;28;20212;-62
2022/03/27 11:19:04;;;;;;;14.57;9.00;;;;;;;19.12;15.59;95762.13;4965654;28;20235;-61
2022/03/27 11:21:29;;;;;;;12.85;8.90;;;;;;;19.32;15.54;95762.34;4960126;28;20220;-64
2022/03/27 11:23:57;;;;;;;17.73;9.82;;;;;;;19.42;15.38;95746.03;4959026;28;20228;-63
2022/03/27 11:26:32;;;;;;;11.45;9.25;;;;;;;19.50;14.81;95748.59;4961200;28;20224;-65
2022/03/27 11:29:04;;;;;;;11.07;8.73;;;;;;;19.61;14.88;95748.06;4960206;28;20207;-65
2022/03/27 11:31:34;;;;;;;15.18;9.55;;;;;;;19.42;14.72;95751.38;4965244;28;20227;-65